sensor_id;sensor_type;location;lat;lon;timestamp;temperature;humidity
35970;DHT22;22448;51.298;6.430;2023-11-21T00:01:17;7.10;99.90
35970;DHT22;22448;51.298;6.430;2023-11-21T00:03:44;7.10;99.90
35970;DHT22;22448;51.298;6.430;2023-11-21T00:06:14;7.20;99.90
35970;DHT22;22448;51.298;6.430;2023-11-21T00:08:44;7.20;99.90
35970;DHT22;22448;51.298;6.430;2023-11-21T00:11:12;7.30;99.90
35970;DHT22;22448;51.298;6.430;2023-11-21T00:13:39;7.30;99.90
35970;DHT22;22448;51.298;6.430;2023-11-21T00:16:06;7.30;99.90
35970;DHT22;22448;51.298;6.430;2023-11-21T00:18:34;7.40;99.90
35970;DHT22;22448;51.298;6.430;2023-11-21T00:21:02;7.40;99.90
35970;DHT22;22448;51.298;6.430;2023-11-21T00:23:30;7.40;99.90
35970;DHT22;22448;51.298;6.430;2023-11-21T00:25:57;7.50;99.90
35970;DHT22;22448;51.298;6.430;2023-11-21T00:28:25;7.50;99.90
35970;DHT22;22448;51.298;6.430;2023-11-21T00:30:53;7.50;99.90
35970;DHT22;22448;51.298;6.430;2023-11-21T00:33:20;7.50;99.90
35970;DHT22;22448;51.298;6.430;2023-11-21T00:35:48;7.50;99.90
35970;DHT22;22448;51.298;6.430;2023-11-21T00:38:15;7.50;99.90
35970;DHT22;22448;51.298;6.430;2023-11-21T00:40:42;7.60;99.90
35970;DHT22;22448;51.298;6.430;2023-11-21T00:43:09;7.60;99.90
35970;DHT22;22448;51.298;6.430;2023-11-21T00:45:36;7.60;99.90
35970;DHT22;22448;51.298;6.430;2023-11-21T00:48:03;7.50;99.90
35970;DHT22;22448;51.298;6.430;2023-11-21T00:50:32;7.50;99.90
35970;DHT22;22448;51.298;6.430;2023-11-21T00:52:59;7.50;99.90
35970;DHT22;22448;51.298;6.430;2023-11-21T00:55:26;7.60;99.90
35970;DHT22;22448;51.298;6.430;2023-11-21T00:57:55;7.50;99.90
35970;DHT22;22448;51.298;6.430;2023-11-21T01:00:22;7.50;99.90
35970;DHT22;22448;51.298;6.430;2023-11-21T01:02:50;7.50;99.90
35970;DHT22;22448;51.298;6.430;2023-11-21T01:05:17;7.50;99.90
35970;DHT22;22448;51.298;6.430;2023-11-21T01:07:45;7.50;99.90
35970;DHT22;22448;51.298;6.430;2023-11-21T01:10:12;7.60;99.90
35970;DHT22;22448;51.298;6.430;2023-11-21T01:12:39;7.60;99.90
35970;DHT22;22448;51.298;6.430;2023-11-21T01:15:09;7.60;99.90
35970;DHT22;22448;51.298;6.430;2023-11-21T01:17:39;7.60;99.90
35970;DHT22;22448;51.298;6.430;2023-11-21T01:20:07;7.70;99.90
35970;DHT22;22448;51.298;6.430;2023-11-21T01:22:39;7.70;99.90
35970;DHT22;22448;51.298;6.430;2023-11-21T01:25:07;7.70;99.90
35970;DHT22;22448;51.298;6.430;2023-11-21T01:27:34;7.70;99.90
35970;DHT22;22448;51.298;6.430;2023-11-21T01:30:02;7.70;99.90
35970;DHT22;22448;51.298;6.430;2023-11-21T01:32:30;7.70;99.90
35970;DHT22;22448;51.298;6.430;2023-11-21T01:34:57;7.60;99.90
35970;DHT22;22448;51.298;6.430;2023-11-21T01:37:25;7.70;99.90
35970;DHT22;22448;51.298;6.430;2023-11-21T01:39:55;7.70;99.90
35970;DHT22;22448;51.298;6.430;2023-11-21T01:42:22;7.70;99.90
35970;DHT22;22448;51.298;6.430;2023-11-21T01:44:49;7.70;99.90
35970;DHT22;22448;51.298;6.430;2023-11-21T01:47:17;7.70;99.90
35970;DHT22;22448;51.298;6.430;2023-11-21T01:49:45;7.60;99.90
35970;DHT22;22448;51.298;6.430;2023-11-21T01:52:12;7.60;99.90
35970;DHT22;22448;51.298;6.430;2023-11-21T01:54:41;7.70;99.90
35970;DHT22;22448;51.298;6.430;2023-11-21T01:57:09;7.70;99.90
35970;DHT22;22448;51.298;6.430;2023-11-21T01:59:37;7.60;99.90
35970;DHT22;22448;51.298;6.430;2023-11-21T02:02:06;7.60;99.90
35970;DHT22;22448;51.298;6.430;2023-11-21T02:04:36;7.70;99.90
35970;DHT22;22448;51.298;6.430;2023-11-21T02:07:04;7.70;99.90
35970;DHT22;22448;51.298;6.430;2023-11-21T02:09:34;7.70;99.90
35970;DHT22;22448;51.298;6.430;2023-11-21T02:12:05;7.70;99.90
35970;DHT22;22448;51.298;6.430;2023-11-21T02:14:32;7.70;99.90
35970;DHT22;22448;51.298;6.430;2023-11-21T02:17:00;7.70;99.90
35970;DHT22;22448;51.298;6.430;2023-11-21T02:19:28;7.70;99.90
35970;DHT22;22448;51.298;6.430;2023-11-21T02:22:00;7.70;99.90
35970;DHT22;22448;51.298;6.430;2023-11-21T02:24:30;7.70;99.90
35970;DHT22;22448;51.298;6.430;2023-11-21T02:26:58;7.70;99.90
35970;DHT22;22448;51.298;6.430;2023-11-21T02:29:25;7.70;99.90
35970;DHT22;22448;51.298;6.430;2023-11-21T02:31:55;7.70;99.90
35970;DHT22;22448;51.298;6.430;2023-11-21T02:34:23;7.70;99.90
35970;DHT22;22448;51.298;6.430;2023-11-21T02:36:52;7.70;99.90
35970;DHT22;22448;51.298;6.430;2023-11-21T02:39:20;7.70;99.90
35970;DHT22;22448;51.298;6.430;2023-11-21T02:41:49;7.70;99.90
35970;DHT22;22448;51.298;6.430;2023-11-21T02:44:17;7.70;99.90
35970;DHT22;22448;51.298;6.430;2023-11-21T02:46:44;7.70;99.90
35970;DHT22;22448;51.298;6.430;2023-11-21T02:49:11;7.70;99.90
35970;DHT22;22448;51.298;6.430;2023-11-21T02:51:41;7.70;99.90
35970;DHT22;22448;51.298;6.430;2023-11-21T02:54:09;7.70;99.90
35970;DHT22;22448;51.298;6.430;2023-11-21T02:56:36;7.70;99.90
35970;DHT22;22448;51.298;6.430;2023-11-21T02:59:04;7.70;99.90
35970;DHT22;22448;51.298;6.430;2023-11-21T03:01:31;7.70;99.90
35970;DHT22;22448;51.298;6.430;2023-11-21T03:03:58;7.60;99.90
35970;DHT22;22448;51.298;6.430;2023-11-21T03:06:27;7.70;99.90
35970;DHT22;22448;51.298;6.430;2023-11-21T03:08:56;7.60;99.90
35970;DHT22;22448;51.298;6.430;2023-11-21T03:11:23;7.70;99.90
35970;DHT22;22448;51.298;6.430;2023-11-21T03:13:53;7.70;99.90
35970;DHT22;22448;51.298;6.430;2023-11-21T03:16:20;7.60;99.90
35970;DHT22;22448;51.298;6.430;2023-11-21T03:18:48;7.60;99.90
35970;DHT22;22448;51.298;6.430;2023-11-21T03:21:15;7.60;99.90
35970;DHT22;22448;51.298;6.430;2023-11-21T03:23:42;7.60;99.90
35970;DHT22;22448;51.298;6.430;2023-11-21T03:26:12;7.60;99.90
35970;DHT22;22448;51.298;6.430;2023-11-21T03:28:40;7.60;99.90
35970;DHT22;22448;51.298;6.430;2023-11-21T03:31:07;7.60;99.90
35970;DHT22;22448;51.298;6.430;2023-11-21T03:33:36;7.60;99.90
35970;DHT22;22448;51.298;6.430;2023-11-21T03:36:06;7.60;99.90
35970;DHT22;22448;51.298;6.430;2023-11-21T03:38:34;7.60;99.90
35970;DHT22;22448;51.298;6.430;2023-11-21T03:41:01;7.60;99.90
35970;DHT22;22448;51.298;6.430;2023-11-21T03:43:29;7.60;99.90
35970;DHT22;22448;51.298;6.430;2023-11-21T03:45:56;7.60;99.90
35970;DHT22;22448;51.298;6.430;2023-11-21T03:48:23;7.70;99.90
35970;DHT22;22448;51.298;6.430;2023-11-21T03:50:50;7.60;99.90
35970;DHT22;22448;51.298;6.430;2023-11-21T03:53:18;7.70;99.90
35970;DHT22;22448;51.298;6.430;2023-11-21T03:55:45;7.70;99.90
35970;DHT22;22448;51.298;6.430;2023-11-21T03:58:12;7.70;99.90
35970;DHT22;22448;51.298;6.430;2023-11-21T04:00:40;7.70;99.90
35970;DHT22;22448;51.298;6.430;2023-11-21T04:03:07;7.60;99.90
35970;DHT22;22448;51.298;6.430;2023-11-21T04:05:35;7.60;99.90
35970;DHT22;22448;51.298;6.430;2023-11-21T04:08:02;7.60;99.90
35970;DHT22;22448;51.298;6.430;2023-11-21T04:10:30;7.60;99.90
35970;DHT22;22448;51.298;6.430;2023-11-21T04:12:57;7.60;99.90
35970;DHT22;22448;51.298;6.430;2023-11-21T04:15:24;7.50;99.90
35970;DHT22;22448;51.298;6.430;2023-11-21T04:17:51;7.50;99.90
35970;DHT22;22448;51.298;6.430;2023-11-21T04:20:18;7.50;99.90
35970;DHT22;22448;51.298;6.430;2023-11-21T04:22:45;7.50;99.90
35970;DHT22;22448;51.298;6.430;2023-11-21T04:25:14;7.50;99.90
35970;DHT22;22448;51.298;6.430;2023-11-21T04:27:44;7.50;99.90
35970;DHT22;22448;51.298;6.430;2023-11-21T04:30:12;7.50;99.90
35970;DHT22;22448;51.298;6.430;2023-11-21T04:32:40;7.40;99.90
35970;DHT22;22448;51.298;6.430;2023-11-21T04:35:09;7.40;99.90
35970;DHT22;22448;51.298;6.430;2023-11-21T04:37:36;7.40;99.90
35970;DHT22;22448;51.298;6.430;2023-11-21T04:40:04;7.40;99.90
35970;DHT22;22448;51.298;6.430;2023-11-21T04:42:35;7.40;99.90
35970;DHT22;22448;51.298;6.430;2023-11-21T04:45:04;7.50;99.90
35970;DHT22;22448;51.298;6.430;2023-11-21T04:47:36;7.40;99.90
35970;DHT22;22448;51.298;6.430;2023-11-21T04:50:04;7.50;99.90
35970;DHT22;22448;51.298;6.430;2023-11-21T04:52:31;7.50;99.90
35970;DHT22;22448;51.298;6.430;2023-11-21T04:55:00;7.40;99.90
35970;DHT22;22448;51.298;6.430;2023-11-21T04:57:28;7.40;99.90
35970;DHT22;22448;51.298;6.430;2023-11-21T04:59:55;7.40;99.90
35970;DHT22;22448;51.298;6.430;2023-11-21T05:02:23;7.40;99.90
35970;DHT22;22448;51.298;6.430;2023-11-21T05:05:02;7.40;99.90
35970;DHT22;22448;51.298;6.430;2023-11-21T05:07:30;7.50;99.90
35970;DHT22;22448;51.298;6.430;2023-11-21T05:09:58;7.50;99.90
35970;DHT22;22448;51.298;6.430;2023-11-21T05:12:25;7.40;99.90
35970;DHT22;22448;51.298;6.430;2023-11-21T05:14:53;7.40;99.90
35970;DHT22;22448;51.298;6.430;2023-11-21T05:17:20;7.40;99.90
35970;DHT22;22448;51.298;6.430;2023-11-21T05:19:47;7.40;99.90
35970;DHT22;22448;51.298;6.430;2023-11-21T05:22:16;7.40;99.90
35970;DHT22;22448;51.298;6.430;2023-11-21T05:24:43;7.40;99.90
35970;DHT22;22448;51.298;6.430;2023-11-21T05:27:10;7.40;99.90
35970;DHT22;22448;51.298;6.430;2023-11-21T05:29:37;7.40;99.90
35970;DHT22;22448;51.298;6.430;2023-11-21T05:32:04;7.40;99.90
35970;DHT22;22448;51.298;6.430;2023-11-21T05:34:32;7.50;99.90
35970;DHT22;22448;51.298;6.430;2023-11-21T05:36:59;7.40;99.90
35970;DHT22;22448;51.298;6.430;2023-11-21T05:39:26;7.50;99.90
35970;DHT22;22448;51.298;6.430;2023-11-21T05:41:54;7.50;99.90
35970;DHT22;22448;51.298;6.430;2023-11-21T05:44:22;7.50;99.90
35970;DHT22;22448;51.298;6.430;2023-11-21T05:46:51;7.50;99.90
35970;DHT22;22448;51.298;6.430;2023-11-21T05:49:18;7.50;99.90
35970;DHT22;22448;51.298;6.430;2023-11-21T05:51:48;7.50;99.90
35970;DHT22;22448;51.298;6.430;2023-11-21T05:54:15;7.50;99.90
35970;DHT22;22448;51.298;6.430;2023-11-21T05:56:42;7.50;99.90
35970;DHT22;22448;51.298;6.430;2023-11-21T05:59:09;7.50;99.90
35970;DHT22;22448;51.298;6.430;2023-11-21T06:01:38;7.50;99.90
35970;DHT22;22448;51.298;6.430;2023-11-21T06:04:05;7.50;99.90
35970;DHT22;22448;51.298;6.430;2023-11-21T06:06:35;7.50;99.90
35970;DHT22;22448;51.298;6.430;2023-11-21T06:09:02;7.50;99.90
35970;DHT22;22448;51.298;6.430;2023-11-21T06:11:30;7.50;99.90
35970;DHT22;22448;51.298;6.430;2023-11-21T06:13:57;7.50;99.90
35970;DHT22;22448;51.298;6.430;2023-11-21T06:16:27;7.50;99.90
35970;DHT22;22448;51.298;6.430;2023-11-21T06:18:55;7.50;99.90
35970;DHT22;22448;51.298;6.430;2023-11-21T06:21:22;7.50;99.90
35970;DHT22;22448;51.298;6.430;2023-11-21T06:23:50;7.50;99.90
35970;DHT22;22448;51.298;6.430;2023-11-21T06:26:19;7.50;99.90
35970;DHT22;22448;51.298;6.430;2023-11-21T06:28:47;7.50;99.90
35970;DHT22;22448;51.298;6.430;2023-11-21T06:31:14;7.50;99.90
35970;DHT22;22448;51.298;6.430;2023-11-21T06:33:41;7.50;99.90
35970;DHT22;22448;51.298;6.430;2023-11-21T06:36:10;7.50;99.90
35970;DHT22;22448;51.298;6.430;2023-11-21T06:38:38;7.50;99.90
35970;DHT22;22448;51.298;6.430;2023-11-21T06:41:06;7.50;99.90
35970;DHT22;22448;51.298;6.430;2023-11-21T06:43:34;7.50;99.90
35970;DHT22;22448;51.298;6.430;2023-11-21T06:46:01;7.50;99.90
35970;DHT22;22448;51.298;6.430;2023-11-21T06:48:29;7.50;99.90
35970;DHT22;22448;51.298;6.430;2023-11-21T06:50:57;7.50;99.90
35970;DHT22;22448;51.298;6.430;2023-11-21T06:53:24;7.50;99.90
35970;DHT22;22448;51.298;6.430;2023-11-21T06:55:51;7.50;99.90
35970;DHT22;22448;51.298;6.430;2023-11-21T06:58:19;7.50;99.90
35970;DHT22;22448;51.298;6.430;2023-11-21T07:00:46;7.50;99.90
35970;DHT22;22448;51.298;6.430;2023-11-21T07:03:15;7.50;99.90
35970;DHT22;22448;51.298;6.430;2023-11-21T07:05:43;7.50;99.90
35970;DHT22;22448;51.298;6.430;2023-11-21T07:08:10;7.50;99.90
35970;DHT22;22448;51.298;6.430;2023-11-21T07:10:37;7.50;99.90
35970;DHT22;22448;51.298;6.430;2023-11-21T07:13:05;7.60;99.90
35970;DHT22;22448;51.298;6.430;2023-11-21T07:15:32;7.60;99.90
35970;DHT22;22448;51.298;6.430;2023-11-21T07:17:59;7.60;99.90
35970;DHT22;22448;51.298;6.430;2023-11-21T07:20:26;7.60;99.90
35970;DHT22;22448;51.298;6.430;2023-11-21T07:22:54;7.60;99.90
35970;DHT22;22448;51.298;6.430;2023-11-21T07:25:23;7.70;99.90
35970;DHT22;22448;51.298;6.430;2023-11-21T07:27:50;7.70;99.90
35970;DHT22;22448;51.298;6.430;2023-11-21T07:30:17;7.70;99.90
35970;DHT22;22448;51.298;6.430;2023-11-21T07:32:47;7.70;99.90
35970;DHT22;22448;51.298;6.430;2023-11-21T07:35:15;7.70;99.90
35970;DHT22;22448;51.298;6.430;2023-11-21T07:37:42;7.70;99.90
35970;DHT22;22448;51.298;6.430;2023-11-21T07:40:10;7.80;99.90
35970;DHT22;22448;51.298;6.430;2023-11-21T07:42:38;7.80;99.90
35970;DHT22;22448;51.298;6.430;2023-11-21T07:45:06;7.80;99.90
35970;DHT22;22448;51.298;6.430;2023-11-21T07:47:34;7.80;99.90
35970;DHT22;22448;51.298;6.430;2023-11-21T07:50:05;7.90;99.90
35970;DHT22;22448;51.298;6.430;2023-11-21T07:52:32;7.90;99.90
35970;DHT22;22448;51.298;6.430;2023-11-21T07:54:59;7.90;99.90
35970;DHT22;22448;51.298;6.430;2023-11-21T07:57:26;8.00;99.90
35970;DHT22;22448;51.298;6.430;2023-11-21T07:59:54;8.00;99.90
35970;DHT22;22448;51.298;6.430;2023-11-21T08:02:22;8.10;99.90
35970;DHT22;22448;51.298;6.430;2023-11-21T08:04:49;8.20;99.90
35970;DHT22;22448;51.298;6.430;2023-11-21T08:07:17;8.30;99.90
35970;DHT22;22448;51.298;6.430;2023-11-21T08:09:44;8.40;99.90
35970;DHT22;22448;51.298;6.430;2023-11-21T08:12:13;8.40;99.90
35970;DHT22;22448;51.298;6.430;2023-11-21T08:14:41;8.50;99.90
35970;DHT22;22448;51.298;6.430;2023-11-21T08:17:09;8.50;99.90
35970;DHT22;22448;51.298;6.430;2023-11-21T08:19:37;8.50;99.90
35970;DHT22;22448;51.298;6.430;2023-11-21T08:22:04;8.50;99.90
35970;DHT22;22448;51.298;6.430;2023-11-21T08:24:32;8.60;99.90
35970;DHT22;22448;51.298;6.430;2023-11-21T08:27:00;8.50;99.90
35970;DHT22;22448;51.298;6.430;2023-11-21T08:29:27;8.50;99.90
35970;DHT22;22448;51.298;6.430;2023-11-21T08:31:55;8.60;99.90
35970;DHT22;22448;51.298;6.430;2023-11-21T08:34:23;8.50;99.90
35970;DHT22;22448;51.298;6.430;2023-11-21T08:36:51;8.50;99.90
35970;DHT22;22448;51.298;6.430;2023-11-21T08:39:17;8.60;99.90
35970;DHT22;22448;51.298;6.430;2023-11-21T08:41:46;8.60;99.90
35970;DHT22;22448;51.298;6.430;2023-11-21T08:44:13;8.60;99.90
35970;DHT22;22448;51.298;6.430;2023-11-21T08:46:40;8.50;99.90
35970;DHT22;22448;51.298;6.430;2023-11-21T08:49:08;8.50;99.90
35970;DHT22;22448;51.298;6.430;2023-11-21T08:51:36;8.50;99.90
35970;DHT22;22448;51.298;6.430;2023-11-21T08:54:03;8.50;99.90
35970;DHT22;22448;51.298;6.430;2023-11-21T08:56:34;8.50;99.90
35970;DHT22;22448;51.298;6.430;2023-11-21T08:59:02;8.50;99.90
35970;DHT22;22448;51.298;6.430;2023-11-21T09:01:29;8.50;99.90
35970;DHT22;22448;51.298;6.430;2023-11-21T09:04:00;8.60;99.90
35970;DHT22;22448;51.298;6.430;2023-11-21T09:06:27;8.60;99.90
35970;DHT22;22448;51.298;6.430;2023-11-21T09:08:54;8.60;99.90
35970;DHT22;22448;51.298;6.430;2023-11-21T09:11:21;8.60;99.90
35970;DHT22;22448;51.298;6.430;2023-11-21T09:13:48;8.60;99.90
35970;DHT22;22448;51.298;6.430;2023-11-21T09:16:15;8.60;99.90
35970;DHT22;22448;51.298;6.430;2023-11-21T09:18:43;8.60;99.90
35970;DHT22;22448;51.298;6.430;2023-11-21T09:21:10;8.60;99.90
35970;DHT22;22448;51.298;6.430;2023-11-21T09:23:37;8.60;99.90
35970;DHT22;22448;51.298;6.430;2023-11-21T09:26:04;8.60;99.90
35970;DHT22;22448;51.298;6.430;2023-11-21T09:28:32;8.60;99.90
35970;DHT22;22448;51.298;6.430;2023-11-21T09:30:59;8.60;99.90
35970;DHT22;22448;51.298;6.430;2023-11-21T09:33:28;8.70;99.90
35970;DHT22;22448;51.298;6.430;2023-11-21T09:35:57;8.70;99.90
35970;DHT22;22448;51.298;6.430;2023-11-21T09:38:24;8.70;99.90
35970;DHT22;22448;51.298;6.430;2023-11-21T09:40:51;8.70;99.90
35970;DHT22;22448;51.298;6.430;2023-11-21T09:43:21;8.80;99.90
35970;DHT22;22448;51.298;6.430;2023-11-21T09:45:59;8.90;99.90
35970;DHT22;22448;51.298;6.430;2023-11-21T09:48:29;8.90;99.90
35970;DHT22;22448;51.298;6.430;2023-11-21T09:50:59;9.00;99.90
35970;DHT22;22448;51.298;6.430;2023-11-21T09:53:27;9.10;99.90
35970;DHT22;22448;51.298;6.430;2023-11-21T09:55:57;9.10;99.90
35970;DHT22;22448;51.298;6.430;2023-11-21T09:58:27;9.20;99.90
35970;DHT22;22448;51.298;6.430;2023-11-21T10:00:55;9.30;99.90
35970;DHT22;22448;51.298;6.430;2023-11-21T10:03:24;9.40;99.90
35970;DHT22;22448;51.298;6.430;2023-11-21T10:05:53;9.50;99.90
35970;DHT22;22448;51.298;6.430;2023-11-21T10:08:22;9.50;99.90
35970;DHT22;22448;51.298;6.430;2023-11-21T10:10:53;9.60;99.90
35970;DHT22;22448;51.298;6.430;2023-11-21T10:13:20;9.60;99.90
35970;DHT22;22448;51.298;6.430;2023-11-21T10:15:50;9.60;99.90
35970;DHT22;22448;51.298;6.430;2023-11-21T10:18:18;9.60;99.90
35970;DHT22;22448;51.298;6.430;2023-11-21T10:20:46;9.60;99.90
35970;DHT22;22448;51.298;6.430;2023-11-21T10:23:19;9.70;99.90
35970;DHT22;22448;51.298;6.430;2023-11-21T10:25:48;9.70;99.90
35970;DHT22;22448;51.298;6.430;2023-11-21T10:28:16;9.70;99.90
35970;DHT22;22448;51.298;6.430;2023-11-21T10:30:44;9.80;99.90
35970;DHT22;22448;51.298;6.430;2023-11-21T10:33:11;9.90;99.90
35970;DHT22;22448;51.298;6.430;2023-11-21T10:35:45;9.90;99.90
35970;DHT22;22448;51.298;6.430;2023-11-21T10:38:22;9.90;99.90
35970;DHT22;22448;51.298;6.430;2023-11-21T10:40:51;9.90;99.90
35970;DHT22;22448;51.298;6.430;2023-11-21T10:43:19;9.80;99.90
35970;DHT22;22448;51.298;6.430;2023-11-21T10:45:46;9.90;99.90
35970;DHT22;22448;51.298;6.430;2023-11-21T10:48:14;10.00;99.90
35970;DHT22;22448;51.298;6.430;2023-11-21T10:50:46;10.00;99.90
35970;DHT22;22448;51.298;6.430;2023-11-21T10:53:14;10.10;99.90
35970;DHT22;22448;51.298;6.430;2023-11-21T10:55:42;10.10;99.90
35970;DHT22;22448;51.298;6.430;2023-11-21T10:58:13;10.10;99.90
35970;DHT22;22448;51.298;6.430;2023-11-21T11:00:40;10.20;99.90
35970;DHT22;22448;51.298;6.430;2023-11-21T11:03:08;10.30;99.90
35970;DHT22;22448;51.298;6.430;2023-11-21T11:05:44;10.40;99.90
35970;DHT22;22448;51.298;6.430;2023-11-21T11:08:22;10.40;99.90
35970;DHT22;22448;51.298;6.430;2023-11-21T11:10:55;10.40;99.90
35970;DHT22;22448;51.298;6.430;2023-11-21T11:13:22;10.30;99.90
35970;DHT22;22448;51.298;6.430;2023-11-21T11:15:57;10.30;99.90
35970;DHT22;22448;51.298;6.430;2023-11-21T11:18:26;10.40;99.90
35970;DHT22;22448;51.298;6.430;2023-11-21T11:20:54;10.30;99.90
35970;DHT22;22448;51.298;6.430;2023-11-21T11:34:35;10.40;99.90
35970;DHT22;22448;51.298;6.430;2023-11-21T11:37:07;10.40;99.90
35970;DHT22;22448;51.298;6.430;2023-11-21T11:39:40;10.40;99.90
35970;DHT22;22448;51.298;6.430;2023-11-21T11:42:16;10.40;99.90
35970;DHT22;22448;51.298;6.430;2023-11-21T11:47:15;10.40;99.90
35970;DHT22;22448;51.298;6.430;2023-11-21T11:50:08;10.40;99.90
35970;DHT22;22448;51.298;6.430;2023-11-21T11:52:54;10.40;99.90
35970;DHT22;22448;51.298;6.430;2023-11-21T11:55:23;10.50;99.90
35970;DHT22;22448;51.298;6.430;2023-11-21T11:57:52;10.40;99.90
35970;DHT22;22448;51.298;6.430;2023-11-21T12:00:34;10.30;99.90
35970;DHT22;22448;51.298;6.430;2023-11-21T12:03:05;10.30;99.90
35970;DHT22;22448;51.298;6.430;2023-11-21T12:05:35;10.30;99.90
35970;DHT22;22448;51.298;6.430;2023-11-21T12:08:06;10.30;99.90
35970;DHT22;22448;51.298;6.430;2023-11-21T12:10:35;10.30;99.90
35970;DHT22;22448;51.298;6.430;2023-11-21T12:13:08;10.40;99.90
35970;DHT22;22448;51.298;6.430;2023-11-21T12:15:38;10.40;99.90
35970;DHT22;22448;51.298;6.430;2023-11-21T12:18:07;10.40;99.90
35970;DHT22;22448;51.298;6.430;2023-11-21T12:20:35;10.40;99.90
35970;DHT22;22448;51.298;6.430;2023-11-21T12:23:10;10.40;99.90
35970;DHT22;22448;51.298;6.430;2023-11-21T12:25:38;10.50;99.90
35970;DHT22;22448;51.298;6.430;2023-11-21T12:28:09;10.50;99.90
35970;DHT22;22448;51.298;6.430;2023-11-21T12:30:36;10.60;99.90
35970;DHT22;22448;51.298;6.430;2023-11-21T12:33:06;10.60;99.90
35970;DHT22;22448;51.298;6.430;2023-11-21T12:35:36;10.60;99.90
35970;DHT22;22448;51.298;6.430;2023-11-21T12:38:04;10.60;99.90
35970;DHT22;22448;51.298;6.430;2023-11-21T12:40:32;10.50;99.90
35970;DHT22;22448;51.298;6.430;2023-11-21T12:43:00;10.50;99.90
35970;DHT22;22448;51.298;6.430;2023-11-21T12:45:34;10.60;99.90
35970;DHT22;22448;51.298;6.430;2023-11-21T12:48:04;10.50;99.90
35970;DHT22;22448;51.298;6.430;2023-11-21T12:50:35;10.50;99.90
35970;DHT22;22448;51.298;6.430;2023-11-21T12:53:10;10.40;99.90
35970;DHT22;22448;51.298;6.430;2023-11-21T12:55:39;10.40;99.90
35970;DHT22;22448;51.298;6.430;2023-11-21T12:58:09;10.50;99.90
35970;DHT22;22448;51.298;6.430;2023-11-21T13:00:42;10.40;99.90
35970;DHT22;22448;51.298;6.430;2023-11-21T13:03:12;10.30;99.90
35970;DHT22;22448;51.298;6.430;2023-11-21T13:05:53;10.30;99.90
35970;DHT22;22448;51.298;6.430;2023-11-21T13:08:25;10.40;99.90
35970;DHT22;22448;51.298;6.430;2023-11-21T13:10:55;10.40;99.90
35970;DHT22;22448;51.298;6.430;2023-11-21T13:13:25;10.40;99.90
35970;DHT22;22448;51.298;6.430;2023-11-21T13:15:56;10.40;99.90
35970;DHT22;22448;51.298;6.430;2023-11-21T13:18:24;10.40;99.90
35970;DHT22;22448;51.298;6.430;2023-11-21T13:20:54;10.40;99.90
35970;DHT22;22448;51.298;6.430;2023-11-21T13:23:22;10.40;99.90
35970;DHT22;22448;51.298;6.430;2023-11-21T13:25:51;10.40;99.90
35970;DHT22;22448;51.298;6.430;2023-11-21T13:28:28;10.40;99.90
35970;DHT22;22448;51.298;6.430;2023-11-21T13:31:00;10.40;99.90
35970;DHT22;22448;51.298;6.430;2023-11-21T13:33:39;10.40;99.90
35970;DHT22;22448;51.298;6.430;2023-11-21T13:36:08;10.40;99.90
35970;DHT22;22448;51.298;6.430;2023-11-21T13:38:37;10.40;99.90
35970;DHT22;22448;51.298;6.430;2023-11-21T13:41:10;10.40;99.90
35970;DHT22;22448;51.298;6.430;2023-11-21T13:43:40;10.40;99.90
35970;DHT22;22448;51.298;6.430;2023-11-21T13:46:10;10.40;99.90
35970;DHT22;22448;51.298;6.430;2023-11-21T13:48:44;10.40;99.90
35970;DHT22;22448;51.298;6.430;2023-11-21T13:51:18;10.40;99.90
35970;DHT22;22448;51.298;6.430;2023-11-21T13:53:48;10.50;99.90
35970;DHT22;22448;51.298;6.430;2023-11-21T13:56:18;10.50;99.90
35970;DHT22;22448;51.298;6.430;2023-11-21T13:58:53;10.40;99.90
35970;DHT22;22448;51.298;6.430;2023-11-21T14:01:22;10.40;99.90
35970;DHT22;22448;51.298;6.430;2023-11-21T14:04:00;10.40;99.90
35970;DHT22;22448;51.298;6.430;2023-11-21T14:06:45;10.30;99.90
35970;DHT22;22448;51.298;6.430;2023-11-21T14:09:20;10.30;99.90
35970;DHT22;22448;51.298;6.430;2023-11-21T14:11:56;10.30;99.90
35970;DHT22;22448;51.298;6.430;2023-11-21T14:14:25;10.30;99.90
35970;DHT22;22448;51.298;6.430;2023-11-21T14:16:53;10.30;99.90
35970;DHT22;22448;51.298;6.430;2023-11-21T14:19:22;10.30;99.90
35970;DHT22;22448;51.298;6.430;2023-11-21T14:21:54;10.20;99.90
35970;DHT22;22448;51.298;6.430;2023-11-21T14:24:21;10.20;99.90
35970;DHT22;22448;51.298;6.430;2023-11-21T14:26:50;10.20;99.90
35970;DHT22;22448;51.298;6.430;2023-11-21T14:29:18;10.10;99.90
35970;DHT22;22448;51.298;6.430;2023-11-21T14:31:50;10.10;99.90
35970;DHT22;22448;51.298;6.430;2023-11-21T14:34:20;10.00;99.90
35970;DHT22;22448;51.298;6.430;2023-11-21T14:36:50;10.00;99.90
35970;DHT22;22448;51.298;6.430;2023-11-21T14:39:17;10.00;99.90
35970;DHT22;22448;51.298;6.430;2023-11-21T14:41:52;9.90;99.90
35970;DHT22;22448;51.298;6.430;2023-11-21T14:44:20;9.90;99.90
35970;DHT22;22448;51.298;6.430;2023-11-21T14:46:50;9.90;99.90
35970;DHT22;22448;51.298;6.430;2023-11-21T14:49:20;9.80;99.90
35970;DHT22;22448;51.298;6.430;2023-11-21T14:51:49;9.90;99.90
35970;DHT22;22448;51.298;6.430;2023-11-21T14:54:23;9.80;99.90
35970;DHT22;22448;51.298;6.430;2023-11-21T14:57:09;9.80;99.90
35970;DHT22;22448;51.298;6.430;2023-11-21T14:59:49;9.70;99.90
35970;DHT22;22448;51.298;6.430;2023-11-21T15:02:19;9.80;99.90
35970;DHT22;22448;51.298;6.430;2023-11-21T15:05:07;9.80;99.90
35970;DHT22;22448;51.298;6.430;2023-11-21T15:07:36;9.70;99.90
35970;DHT22;22448;51.298;6.430;2023-11-21T15:10:07;9.60;99.90
35970;DHT22;22448;51.298;6.430;2023-11-21T15:12:38;9.60;99.90
35970;DHT22;22448;51.298;6.430;2023-11-21T15:15:07;9.60;99.90
35970;DHT22;22448;51.298;6.430;2023-11-21T15:17:37;9.50;99.90
35970;DHT22;22448;51.298;6.430;2023-11-21T15:20:06;9.50;99.90
35970;DHT22;22448;51.298;6.430;2023-11-21T15:22:35;9.50;99.90
35970;DHT22;22448;51.298;6.430;2023-11-21T15:25:04;9.50;99.90
35970;DHT22;22448;51.298;6.430;2023-11-21T15:27:37;9.50;99.90
35970;DHT22;22448;51.298;6.430;2023-11-21T15:30:05;9.40;99.90
35970;DHT22;22448;51.298;6.430;2023-11-21T15:32:33;9.40;99.90
35970;DHT22;22448;51.298;6.430;2023-11-21T15:35:00;9.40;99.90
35970;DHT22;22448;51.298;6.430;2023-11-21T15:37:27;9.40;99.90
35970;DHT22;22448;51.298;6.430;2023-11-21T15:39:56;9.40;99.90
35970;DHT22;22448;51.298;6.430;2023-11-21T15:42:23;9.40;99.90
35970;DHT22;22448;51.298;6.430;2023-11-21T15:44:50;9.40;99.90
35970;DHT22;22448;51.298;6.430;2023-11-21T15:47:18;9.40;99.90
35970;DHT22;22448;51.298;6.430;2023-11-21T15:49:46;9.40;99.90
35970;DHT22;22448;51.298;6.430;2023-11-21T15:52:17;9.40;99.90
35970;DHT22;22448;51.298;6.430;2023-11-21T15:54:46;9.30;99.90
35970;DHT22;22448;51.298;6.430;2023-11-21T15:57:13;9.30;99.90
35970;DHT22;22448;51.298;6.430;2023-11-21T15:59:41;9.30;99.90
35970;DHT22;22448;51.298;6.430;2023-11-21T16:02:10;9.30;99.90
35970;DHT22;22448;51.298;6.430;2023-11-21T16:04:39;9.30;99.90
35970;DHT22;22448;51.298;6.430;2023-11-21T16:07:08;9.20;99.90